createdAt,value
2022-11-03T00:01:38.390Z,10.80
2022-11-03T00:04:06.725Z,10.90
2022-11-03T00:06:33.910Z,10.80
2022-11-03T00:09:02.595Z,10.80
2022-11-03T00:11:29.344Z,10.90
2022-11-03T00:13:57.056Z,10.90
2022-11-03T00:16:23.867Z,10.90
2022-11-03T00:18:52.179Z,10.90
2022-11-03T00:21:19.389Z,10.90
2022-11-03T00:23:47.049Z,10.90
2022-11-03T00:26:18.200Z,11.00
2022-11-03T00:28:46.732Z,11.00
2022-11-03T00:31:19.278Z,10.90
2022-11-03T00:33:46.748Z,11.00
2022-11-03T00:36:16.162Z,11.00
2022-11-03T00:38:44.438Z,11.00
2022-11-03T00:41:11.998Z,11.10
2022-11-03T00:43:39.097Z,11.10
2022-11-03T00:46:07.594Z,11.10
2022-11-03T00:48:35.447Z,11.20
2022-11-03T00:51:09.817Z,11.20
2022-11-03T00:53:42.176Z,11.20
2022-11-03T00:56:17.381Z,11.20
2022-11-03T00:58:44.706Z,11.20
2022-11-03T01:01:12.919Z,11.30
2022-11-03T01:03:42.005Z,11.20
2022-11-03T01:06:30.266Z,11.10
2022-11-03T01:08:59.324Z,11.30
2022-11-03T01:11:44.044Z,11.20
2022-11-03T01:14:15.744Z,11.20
2022-11-03T01:16:43.023Z,11.30
2022-11-03T01:19:10.564Z,11.20
2022-11-03T01:21:37.269Z,11.30
2022-11-03T01:24:05.091Z,11.30
2022-11-03T01:26:32.439Z,11.30
2022-11-03T01:29:00.399Z,11.30
2022-11-03T01:31:28.196Z,11.30
2022-11-03T01:33:56.224Z,11.30
2022-11-03T01:36:23.974Z,11.20
2022-11-03T01:38:50.802Z,11.20
2022-11-03T01:41:21.752Z,11.20
2022-11-03T01:44:04.518Z,11.20
2022-11-03T01:46:43.830Z,11.20
2022-11-03T01:49:23.177Z,11.20
2022-11-03T01:52:03.333Z,11.10
2022-11-03T01:54:31.599Z,11.10
2022-11-03T01:56:59.841Z,11.10
2022-11-03T01:59:28.473Z,11.10
2022-11-03T02:01:56.659Z,11.10
2022-11-03T02:04:28.678Z,11.00
2022-11-03T02:07:20.551Z,11.00
2022-11-03T02:09:47.356Z,11.00
2022-11-03T02:12:14.925Z,11.00
2022-11-03T02:14:48.549Z,11.00
2022-11-03T02:17:17.944Z,11.00
2022-11-03T02:19:53.870Z,11.00
2022-11-03T02:22:36.309Z,11.00
2022-11-03T02:25:17.843Z,11.00
2022-11-03T02:27:45.033Z,11.00
2022-11-03T02:30:11.935Z,11.00
2022-11-03T02:32:41.796Z,11.00
2022-11-03T02:35:19.418Z,11.00
2022-11-03T02:37:51.245Z,11.00
2022-11-03T02:40:31.426Z,11.00
2022-11-03T02:43:01.511Z,11.00
2022-11-03T02:45:29.192Z,11.00
2022-11-03T02:48:00.874Z,11.00
2022-11-03T02:50:33.941Z,11.00
2022-11-03T02:53:01.470Z,10.90
2022-11-03T02:56:06.533Z,10.90
2022-11-03T02:58:57.817Z,10.90
2022-11-03T03:01:34.824Z,10.90
2022-11-03T03:04:06.956Z,11.00
2022-11-03T03:06:51.975Z,11.00
2022-11-03T03:09:25.775Z,11.00
2022-11-03T03:11:55.347Z,11.00
2022-11-03T03:14:29.618Z,11.00
2022-11-03T03:17:14.550Z,11.00
2022-11-03T03:19:59.091Z,11.00
2022-11-03T03:22:37.073Z,11.00
2022-11-03T03:25:12.604Z,11.00
2022-11-03T03:27:43.458Z,11.00
2022-11-03T03:30:10.392Z,11.00
2022-11-03T03:32:40.666Z,11.00
2022-11-03T03:35:11.643Z,11.00
2022-11-03T03:37:42.063Z,11.00
2022-11-03T03:40:11.943Z,11.00
2022-11-03T03:42:40.639Z,11.00
2022-11-03T03:45:09.915Z,11.00
2022-11-03T03:47:36.920Z,11.00
2022-11-03T03:50:04.285Z,11.00
2022-11-03T03:52:33.496Z,11.00
2022-11-03T03:55:00.851Z,11.00
2022-11-03T03:57:29.434Z,11.00
2022-11-03T03:59:56.320Z,11.00
2022-11-03T04:02:23.010Z,11.00
2022-11-03T04:04:49.848Z,11.00
2022-11-03T04:07:39.323Z,11.00
2022-11-03T04:10:10.628Z,11.00
2022-11-03T04:12:56.051Z,11.00
2022-11-03T04:15:41.518Z,11.00
2022-11-03T04:18:27.040Z,11.00
2022-11-03T04:21:12.429Z,11.10
2022-11-03T04:23:39.305Z,11.10
2022-11-03T04:26:13.038Z,11.10
2022-11-03T04:28:41.003Z,11.10
2022-11-03T04:31:14.949Z,11.00
2022-11-03T04:33:42.277Z,11.10
2022-11-03T04:36:11.462Z,11.20
2022-11-03T04:38:38.719Z,11.20
2022-11-03T04:41:18.437Z,11.10
2022-11-03T04:43:46.600Z,11.10
2022-11-03T04:46:16.903Z,11.20
2022-11-03T04:48:44.931Z,11.20
2022-11-03T04:51:17.519Z,11.20
2022-11-03T04:53:54.128Z,11.20
2022-11-03T04:56:23.605Z,11.20
2022-11-03T04:58:51.512Z,11.20
2022-11-03T05:01:24.217Z,11.20
2022-11-03T05:03:54.239Z,11.30
2022-11-03T05:06:27.989Z,11.20
2022-11-03T05:09:02.808Z,11.20
2022-11-03T05:11:39.028Z,11.20
2022-11-03T05:14:20.179Z,11.20
2022-11-03T05:16:48.763Z,11.20
2022-11-03T05:19:23.988Z,11.20
2022-11-03T05:21:52.381Z,11.20
2022-11-03T05:24:22.251Z,11.20
2022-11-03T05:26:49.739Z,11.20
2022-11-03T05:29:21.240Z,11.20
2022-11-03T05:31:50.835Z,11.20
2022-11-03T05:34:42.952Z,11.30
2022-11-03T05:37:27.524Z,11.30
2022-11-03T05:40:00.901Z,11.30
2022-11-03T05:42:40.119Z,11.30
2022-11-03T05:45:34.008Z,11.30
2022-11-03T05:48:02.190Z,11.30
2022-11-03T05:50:33.215Z,11.40
2022-11-03T05:53:23.922Z,11.40
2022-11-03T05:56:00.861Z,11.40
2022-11-03T05:58:29.364Z,11.40
2022-11-03T06:00:57.640Z,11.40
2022-11-03T06:03:27.350Z,11.50
2022-11-03T06:05:55.119Z,11.50
2022-11-03T06:08:25.964Z,11.60
2022-11-03T06:10:55.162Z,11.50
2022-11-03T06:13:51.467Z,11.60
2022-11-03T06:16:41.402Z,11.60
2022-11-03T06:19:22.543Z,11.50
2022-11-03T06:21:51.919Z,11.50
2022-11-03T06:24:23.019Z,11.50
2022-11-03T06:26:51.604Z,11.40
2022-11-03T06:29:20.259Z,11.60
2022-11-03T06:31:50.080Z,11.60
2022-11-03T06:34:29.657Z,11.60
2022-11-03T06:36:58.396Z,11.60
2022-11-03T06:39:25.207Z,11.50
2022-11-03T06:41:52.856Z,11.60
2022-11-03T06:44:30.101Z,11.60
2022-11-03T06:47:01.441Z,11.60
2022-11-03T06:49:34.989Z,11.60
2022-11-03T06:52:26.362Z,11.70
2022-11-03T06:55:17.076Z,11.70
2022-11-03T06:57:47.117Z,11.70
2022-11-03T07:00:33.683Z,11.70
2022-11-03T07:03:35.129Z,11.70
2022-11-03T07:06:11.121Z,11.70
2022-11-03T07:08:47.948Z,11.70
2022-11-03T07:11:14.587Z,11.70
2022-11-03T07:13:41.787Z,11.70
2022-11-03T07:16:33.249Z,11.70
2022-11-03T07:19:01.155Z,11.70
2022-11-03T07:21:40.737Z,11.70
2022-11-03T07:24:19.636Z,11.80
2022-11-03T07:26:46.407Z,11.80
2022-11-03T07:29:22.933Z,11.80
2022-11-03T07:31:52.006Z,11.90
2022-11-03T07:34:24.877Z,11.90
2022-11-03T07:36:56.022Z,11.90
2022-11-03T07:39:22.955Z,11.90
2022-11-03T07:41:50.656Z,11.90
2022-11-03T07:44:23.125Z,11.90
2022-11-03T07:46:50.883Z,11.90
2022-11-03T07:49:27.113Z,11.90
2022-11-03T07:51:55.908Z,11.90
2022-11-03T07:54:28.229Z,12.00
2022-11-03T07:57:20.402Z,12.10
2022-11-03T07:59:53.549Z,12.10
2022-11-03T08:02:26.533Z,12.20
2022-11-03T08:04:53.281Z,12.20
2022-11-03T08:07:20.011Z,12.20
2022-11-03T08:09:46.761Z,12.30
2022-11-03T08:12:13.630Z,12.40
2022-11-03T08:14:40.437Z,12.40
2022-11-03T08:17:07.492Z,12.50
2022-11-03T08:19:34.175Z,12.40
2022-11-03T08:22:01.005Z,12.50
2022-11-03T08:24:27.678Z,12.60
2022-11-03T08:26:54.342Z,12.60
2022-11-03T08:29:21.376Z,12.70
2022-11-03T08:31:48.355Z,12.80
2022-11-03T08:34:15.105Z,12.80
2022-11-03T08:36:41.850Z,12.80
2022-11-03T08:39:08.595Z,12.80
2022-11-03T08:41:35.396Z,12.80
2022-11-03T08:44:02.127Z,12.90
2022-11-03T08:46:28.817Z,12.90
2022-11-03T08:48:55.779Z,12.90
2022-11-03T08:51:22.769Z,12.90
2022-11-03T08:53:54.110Z,12.90
2022-11-03T08:56:22.536Z,13.00
2022-11-03T08:58:49.784Z,13.00
2022-11-03T09:01:16.783Z,13.00
2022-11-03T09:03:43.760Z,13.00
2022-11-03T09:06:10.809Z,13.00
2022-11-03T09:11:24.299Z,13.20
2022-11-03T09:13:51.005Z,13.30
2022-11-03T09:16:17.948Z,13.40
2022-11-03T09:18:45.489Z,13.40
2022-11-03T09:21:13.404Z,13.50
2022-11-03T09:23:40.265Z,13.50
2022-11-03T09:26:07.147Z,13.60
2022-11-03T09:28:33.869Z,13.70
2022-11-03T09:31:00.635Z,13.70
2022-11-03T09:33:27.374Z,13.70
2022-11-03T09:35:54.154Z,13.80
2022-11-03T09:38:20.856Z,13.80
2022-11-03T09:43:15.637Z,13.90
2022-11-03T09:45:42.309Z,14.00
2022-11-03T09:48:13.522Z,14.00
2022-11-03T09:50:40.819Z,14.10
2022-11-03T09:53:11.593Z,14.10
2022-11-03T09:55:39.352Z,14.10
2022-11-03T09:58:17.398Z,14.20
2022-11-03T10:00:45.668Z,14.20
2022-11-03T10:03:15.559Z,14.20
2022-11-03T10:05:43.896Z,14.30
2022-11-03T10:08:26.831Z,14.40
2022-11-03T10:10:54.622Z,14.40
2022-11-03T10:13:31.470Z,14.40
2022-11-03T10:16:00.651Z,14.40
2022-11-03T10:18:28.824Z,14.50
2022-11-03T10:20:55.773Z,14.50
2022-11-03T10:23:22.495Z,14.50
2022-11-03T10:25:49.229Z,14.50
2022-11-03T10:28:26.771Z,14.50
2022-11-03T10:31:11.901Z,14.50
2022-11-03T10:33:41.324Z,14.50
2022-11-03T10:36:17.427Z,14.50
2022-11-03T10:38:44.999Z,14.50
2022-11-03T10:41:32.236Z,14.50
2022-11-03T10:44:11.164Z,14.50
2022-11-03T10:46:54.759Z,14.50
2022-11-03T10:49:21.970Z,14.40
2022-11-03T10:51:54.711Z,14.40
2022-11-03T10:54:25.390Z,14.50
2022-11-03T10:56:53.214Z,14.50
2022-11-03T10:59:24.371Z,14.50
2022-11-03T11:01:51.570Z,14.50
2022-11-03T11:04:19.920Z,14.60
2022-11-03T11:06:47.337Z,14.60
2022-11-03T11:09:27.791Z,14.60
2022-11-03T11:12:03.735Z,14.60
2022-11-03T11:14:31.688Z,14.60
2022-11-03T11:16:59.583Z,14.60
2022-11-03T11:19:28.541Z,14.60
2022-11-03T11:21:55.227Z,14.60
2022-11-03T11:24:43.579Z,14.60
2022-11-03T11:27:39.858Z,14.70
2022-11-03T11:30:27.892Z,14.80
2022-11-03T11:33:13.060Z,14.90
2022-11-03T11:35:39.807Z,15.20
2022-11-03T11:38:43.915Z,15.50
2022-11-03T11:41:10.668Z,15.80
2022-11-03T11:43:37.867Z,16.00
2022-11-03T11:46:22.815Z,16.20
2022-11-03T11:49:09.878Z,16.40
2022-11-03T11:51:37.841Z,16.70
2022-11-03T11:54:17.533Z,16.80
2022-11-03T11:56:47.484Z,16.80
2022-11-03T11:59:25.987Z,16.80
2022-11-03T12:01:56.421Z,16.80
2022-11-03T12:04:27.439Z,16.60
2022-11-03T12:06:55.661Z,16.80
2022-11-03T12:09:24.943Z,17.10
2022-11-03T12:11:56.434Z,17.20
2022-11-03T12:14:29.432Z,17.50
2022-11-03T12:16:58.878Z,17.40
2022-11-03T12:19:54.209Z,17.20
2022-11-03T12:22:23.676Z,17.10
2022-11-03T12:24:53.509Z,16.70
2022-11-03T12:27:42.263Z,16.30
2022-11-03T12:30:15.680Z,15.90
2022-11-03T12:32:42.657Z,15.70
2022-11-03T12:35:09.972Z,15.60
2022-11-03T12:37:38.061Z,15.60
2022-11-03T12:40:05.595Z,15.50
2022-11-03T12:42:32.364Z,15.40
2022-11-03T12:44:59.542Z,15.40
2022-11-03T12:47:26.351Z,15.40
2022-11-03T12:49:53.398Z,15.30
2022-11-03T12:52:20.073Z,15.40
2022-11-03T12:54:46.962Z,15.70
2022-11-03T12:57:13.904Z,16.10
2022-11-03T12:59:40.708Z,16.30
2022-11-03T13:02:10.103Z,16.40
2022-11-03T13:04:37.058Z,16.30
2022-11-03T13:07:03.936Z,16.20
2022-11-03T13:09:30.594Z,16.00
2022-11-03T13:12:16.266Z,15.90
2022-11-03T13:14:46.044Z,15.70
2022-11-03T13:17:13.301Z,15.50
2022-11-03T13:19:40.153Z,15.50
2022-11-03T13:22:06.840Z,15.40
2022-11-03T13:24:33.560Z,15.30
2022-11-03T13:27:00.412Z,15.20
2022-11-03T13:29:31.072Z,15.20
2022-11-03T13:32:01.081Z,15.10
2022-11-03T13:34:27.856Z,15.00
2022-11-03T13:36:54.651Z,14.90
2022-11-03T13:39:21.445Z,14.80
2022-11-03T13:41:48.339Z,14.80
2022-11-03T13:44:15.071Z,14.80
2022-11-03T13:46:42.135Z,14.80
2022-11-03T13:51:55.686Z,14.80
2022-11-03T13:59:57.884Z,14.80
2022-11-03T14:05:14.050Z,14.70
2022-11-03T14:07:40.797Z,14.60
2022-11-03T14:10:07.973Z,14.50
2022-11-03T14:12:36.114Z,14.50
2022-11-03T14:15:08.977Z,14.50
2022-11-03T14:17:36.212Z,14.50
2022-11-03T14:20:05.057Z,14.40
2022-11-03T14:22:32.891Z,14.30
2022-11-03T14:25:00.958Z,14.40
2022-11-03T14:27:27.927Z,14.40
2022-11-03T14:29:54.886Z,14.40
2022-11-03T14:32:22.005Z,14.30
2022-11-03T14:34:49.435Z,14.30
2022-11-03T14:37:16.347Z,14.40
2022-11-03T14:39:43.217Z,14.30
2022-11-03T14:42:17.523Z,14.30
2022-11-03T14:44:46.749Z,14.30
2022-11-03T14:47:17.868Z,14.30
2022-11-03T14:49:45.876Z,14.20
2022-11-03T14:52:13.596Z,14.20
2022-11-03T14:54:40.548Z,14.20
2022-11-03T14:57:09.538Z,14.20
2022-11-03T14:59:36.511Z,14.20
2022-11-03T15:02:04.483Z,14.20
2022-11-03T15:04:31.505Z,14.20
2022-11-03T15:06:58.339Z,14.20
2022-11-03T15:09:25.246Z,14.20
2022-11-03T15:11:52.202Z,14.10
2022-11-03T15:14:19.085Z,14.00
2022-11-03T15:16:46.274Z,14.00
2022-11-03T15:19:13.216Z,14.00
2022-11-03T15:21:40.020Z,13.80
2022-11-03T15:26:54.331Z,13.70
2022-11-03T15:29:23.999Z,13.60
2022-11-03T15:31:50.898Z,13.60
2022-11-03T15:34:18.063Z,13.60
2022-11-03T15:36:45.224Z,13.60
2022-11-03T15:39:13.150Z,13.50
2022-11-03T15:41:39.928Z,13.50
2022-11-03T15:44:06.910Z,13.50
2022-11-03T15:46:35.355Z,13.40
2022-11-03T15:49:02.800Z,13.20
2022-11-03T15:51:29.787Z,13.00
2022-11-03T15:53:58.884Z,12.90
2022-11-03T15:56:30.084Z,12.70
2022-11-03T15:58:56.924Z,12.60
2022-11-03T16:01:24.059Z,12.50
2022-11-03T16:03:51.091Z,12.50
2022-11-03T16:06:18.025Z,12.40
2022-11-03T16:08:45.063Z,12.40
2022-11-03T16:11:11.837Z,12.40
2022-11-03T16:13:39.577Z,12.40
2022-11-03T16:16:07.051Z,12.40
2022-11-03T16:18:34.671Z,12.30
2022-11-03T16:21:01.415Z,12.20
2022-11-03T16:23:28.197Z,12.10
2022-11-03T16:25:55.132Z,12.10
2022-11-03T16:28:22.082Z,11.90
2022-11-03T16:30:54.098Z,11.90
2022-11-03T16:33:21.883Z,11.80
2022-11-03T16:35:49.192Z,11.70
2022-11-03T16:38:15.975Z,11.70
2022-11-03T16:40:43.458Z,11.70
2022-11-03T16:43:10.426Z,11.70
2022-11-03T16:45:38.224Z,11.70
2022-11-03T16:48:06.159Z,11.70
2022-11-03T16:50:33.370Z,11.70
2022-11-03T16:53:00.115Z,11.70
2022-11-03T16:55:26.851Z,11.60
2022-11-03T16:57:53.588Z,11.60
2022-11-03T17:00:20.868Z,11.60
2022-11-03T17:02:47.996Z,11.50
2022-11-03T17:05:17.579Z,11.50
2022-11-03T17:07:50.091Z,11.50
2022-11-03T17:10:20.028Z,11.50
2022-11-03T17:12:46.846Z,11.50
2022-11-03T17:15:13.607Z,11.40
2022-11-03T17:17:40.483Z,11.50
2022-11-03T17:20:08.790Z,11.40
2022-11-03T17:22:35.538Z,11.40
2022-11-03T17:25:02.853Z,11.40
2022-11-03T17:27:38.236Z,11.40
2022-11-03T17:30:08.935Z,11.40
2022-11-03T17:32:41.503Z,11.40
2022-11-03T17:35:17.518Z,11.40
2022-11-03T17:37:44.760Z,11.40
2022-11-03T17:40:23.288Z,11.40
2022-11-03T17:42:50.937Z,11.40
2022-11-03T17:45:20.954Z,11.40
2022-11-03T17:47:49.557Z,11.50
2022-11-03T17:50:22.118Z,11.40
2022-11-03T17:52:50.715Z,11.40
2022-11-03T17:55:23.270Z,11.40
2022-11-03T17:57:50.167Z,11.40
2022-11-03T18:00:23.484Z,11.50
2022-11-03T18:02:52.236Z,11.50
2022-11-03T18:05:46.314Z,11.60
2022-11-03T18:08:13.426Z,11.50
2022-11-03T18:10:43.545Z,11.50
2022-11-03T18:13:25.745Z,11.50
2022-11-03T18:16:02.165Z,11.50
2022-11-03T18:18:36.370Z,11.50
2022-11-03T18:21:03.526Z,11.50
2022-11-03T18:23:34.963Z,11.60
2022-11-03T18:26:04.364Z,11.50
2022-11-03T18:28:31.096Z,11.60
2022-11-03T18:30:58.723Z,11.60
2022-11-03T18:33:32.974Z,11.60
2022-11-03T18:36:02.828Z,11.60
2022-11-03T18:38:30.227Z,11.60
2022-11-03T18:40:58.882Z,11.60
2022-11-03T18:43:25.946Z,11.60
2022-11-03T18:45:52.918Z,11.50
2022-11-03T18:48:19.950Z,11.50
2022-11-03T18:50:55.481Z,11.50
2022-11-03T18:53:25.253Z,11.50
2022-11-03T18:55:53.442Z,11.50
2022-11-03T18:58:25.170Z,11.50
2022-11-03T19:00:52.930Z,11.40
2022-11-03T19:03:22.362Z,11.40
2022-11-03T19:05:51.242Z,11.40
2022-11-03T19:08:32.935Z,11.50
2022-11-03T19:11:03.721Z,11.50
2022-11-03T19:13:41.261Z,11.50
2022-11-03T19:16:29.266Z,11.50
2022-11-03T19:18:56.385Z,11.50
2022-11-03T19:21:24.180Z,11.50
2022-11-03T19:23:57.993Z,11.50
2022-11-03T19:26:36.150Z,11.50
2022-11-03T19:29:09.069Z,11.50
2022-11-03T19:31:43.626Z,11.60
2022-11-03T19:34:16.979Z,11.60
2022-11-03T19:36:45.062Z,11.60
2022-11-03T19:39:33.160Z,11.60
2022-11-03T19:42:20.692Z,11.60
2022-11-03T19:44:52.045Z,11.60
2022-11-03T19:47:19.120Z,11.60
2022-11-03T19:49:46.841Z,11.60
2022-11-03T19:52:16.275Z,11.60
2022-11-03T19:54:46.831Z,11.60
2022-11-03T19:57:16.737Z,11.60
2022-11-03T19:59:44.441Z,11.50
2022-11-03T20:02:12.695Z,11.60
2022-11-03T20:04:44.352Z,11.50
2022-11-03T20:07:11.588Z,11.60
2022-11-03T20:09:38.559Z,11.50
2022-11-03T20:12:07.550Z,11.50
2022-11-03T20:14:35.256Z,11.50
2022-11-03T20:17:17.233Z,11.50
2022-11-03T20:19:44.223Z,11.50
2022-11-03T20:22:18.185Z,11.50
2022-11-03T20:24:49.032Z,11.40
2022-11-03T20:27:17.791Z,11.40
2022-11-03T20:29:44.778Z,11.40
2022-11-03T20:32:15.071Z,11.40
2022-11-03T20:34:41.794Z,11.40
2022-11-03T20:37:18.754Z,11.40
2022-11-03T20:39:47.089Z,11.40
2022-11-03T20:42:24.488Z,11.40
2022-11-03T20:44:52.277Z,11.40
2022-11-03T20:47:19.269Z,11.40
2022-11-03T20:49:46.441Z,11.40
2022-11-03T20:52:14.452Z,11.40
2022-11-03T20:54:42.075Z,11.40
2022-11-03T20:57:14.149Z,11.40
2022-11-03T20:59:41.455Z,11.40
2022-11-03T21:02:13.202Z,11.40
2022-11-03T21:04:41.166Z,11.40
2022-11-03T21:07:11.288Z,11.50
2022-11-03T21:09:38.529Z,11.50
2022-11-03T21:12:06.080Z,11.50
2022-11-03T21:14:39.177Z,11.50
2022-11-03T21:17:45.127Z,11.50
2022-11-03T21:20:12.180Z,11.50
2022-11-03T21:22:52.478Z,11.60
2022-11-03T21:25:22.511Z,11.60
2022-11-03T21:27:49.739Z,11.60
2022-11-03T21:30:17.512Z,11.60
2022-11-03T21:32:44.419Z,11.60
2022-11-03T21:35:16.062Z,11.60
2022-11-03T21:37:42.982Z,11.70
2022-11-03T21:40:10.494Z,11.70
2022-11-03T21:42:55.702Z,11.70
2022-11-03T21:45:22.410Z,11.70
2022-11-03T21:48:13.108Z,11.70
2022-11-03T21:50:40.211Z,11.70
2022-11-03T21:53:07.727Z,11.70
2022-11-03T21:55:35.108Z,11.70
2022-11-03T21:58:02.571Z,11.70
2022-11-03T22:00:29.519Z,11.70
2022-11-03T22:02:56.333Z,11.70
2022-11-03T22:05:23.142Z,11.80
2022-11-03T22:07:50.061Z,11.80
2022-11-03T22:10:17.894Z,11.80
2022-11-03T22:12:44.787Z,11.70
2022-11-03T22:15:30.226Z,11.70
2022-11-03T22:18:04.341Z,11.70
2022-11-03T22:20:49.770Z,11.70
2022-11-03T22:23:34.943Z,11.60
2022-11-03T22:26:20.866Z,11.70
2022-11-03T22:29:07.637Z,11.70
2022-11-03T22:31:40.627Z,11.70
2022-11-03T22:34:25.981Z,11.60
2022-11-03T22:36:52.764Z,11.70
2022-11-03T22:39:38.150Z,11.70
2022-11-03T22:42:23.335Z,11.60
2022-11-03T22:45:08.520Z,11.70
2022-11-03T22:47:35.308Z,11.70
2022-11-03T22:50:01.973Z,11.70
2022-11-03T22:52:28.715Z,11.70
2022-11-03T22:54:55.469Z,11.70
2022-11-03T22:57:22.338Z,11.70
2022-11-03T22:59:49.128Z,11.70
2022-11-03T23:02:15.947Z,11.70
2022-11-03T23:04:42.772Z,11.70
2022-11-03T23:07:09.792Z,11.80
2022-11-03T23:09:36.621Z,11.70
2022-11-03T23:12:03.814Z,11.60
2022-11-03T23:14:50.470Z,11.50
2022-11-03T23:17:17.908Z,11.40
2022-11-03T23:20:03.307Z,11.40
2022-11-03T23:22:30.055Z,11.30
2022-11-03T23:24:59.595Z,11.30
2022-11-03T23:27:26.462Z,11.20
2022-11-03T23:29:53.210Z,11.20
2022-11-03T23:32:20.010Z,11.10
2022-11-03T23:34:46.788Z,11.00
2022-11-03T23:37:14.256Z,11.00
2022-11-03T23:39:40.996Z,10.90
2022-11-03T23:42:07.831Z,10.90
2022-11-03T23:45:10.346Z,10.90
2022-11-03T23:47:55.739Z,10.80
2022-11-03T23:50:22.643Z,10.80
2022-11-03T23:52:49.573Z,10.70
2022-11-03T23:55:16.319Z,10.70
2022-11-03T23:58:01.540Z,10.70
